sensor_id;sensor_type;location;lat;lon;timestamp;pressure;altitude;pressure_sealevel;temperature;humidity
30463;BME280;17256;43.618;25.336;2022-08-19T00:38:03;100088.13;;;26.60;72.36
30463;BME280;17256;43.618;25.336;2022-08-19T01:29:08;100067.25;;;25.15;98.78
30463;BME280;17256;43.618;25.336;2022-08-19T01:31:34;100075.91;;;25.19;99.54
30463;BME280;17256;43.618;25.336;2022-08-19T02:11:50;100233.53;;;25.36;100.00
30463;BME280;17256;43.618;25.336;2022-08-19T04:22:41;100206.28;;;25.51;100.00
30463;BME280;17256;43.618;25.336;2022-08-19T04:31:57;100280.25;;;26.71;98.13
30463;BME280;17256;43.618;25.336;2022-08-19T04:34:28;100266.59;;;26.78;96.24
30463;BME280;17256;43.618;25.336;2022-08-19T04:36:57;100180.56;;;26.45;94.98
30463;BME280;17256;43.618;25.336;2022-08-19T04:39:27;100151.50;;;26.35;92.91
30463;BME280;17256;43.618;25.336;2022-08-19T04:42:15;100331.66;;;27.54;92.19
30463;BME280;17256;43.618;25.336;2022-08-19T04:45:15;100131.97;;;26.53;90.83
30463;BME280;17256;43.618;25.336;2022-08-19T04:47:43;100331.41;;;27.78;91.45
30463;BME280;17256;43.618;25.336;2022-08-19T04:50:09;100153.88;;;26.56;91.86
30463;BME280;17256;43.618;25.336;2022-08-19T04:52:38;100308.41;;;27.71;90.43
30463;BME280;17256;43.618;25.336;2022-08-19T04:55:10;100318.41;;;27.99;90.06
30463;BME280;17256;43.618;25.336;2022-08-19T04:57:36;100245.56;;;27.56;92.35
30463;BME280;17256;43.618;25.336;2022-08-19T05:00:07;100298.47;;;27.96;98.31
30463;BME280;17256;43.618;25.336;2022-08-19T05:02:33;100310.84;;;27.86;100.00
30463;BME280;17256;43.618;25.336;2022-08-19T05:04:58;100246.34;;;27.71;100.00
30463;BME280;17256;43.618;25.336;2022-08-19T05:07:26;100331.09;;;28.33;98.70
30463;BME280;17256;43.618;25.336;2022-08-19T05:09:52;100253.44;;;27.91;98.57
30463;BME280;17256;43.618;25.336;2022-08-19T05:12:18;100331.78;;;28.38;98.98
30463;BME280;17256;43.618;25.336;2022-08-19T05:14:45;100241.19;;;27.50;100.00
30463;BME280;17256;43.618;25.336;2022-08-19T05:17:13;100271.28;;;27.55;100.00
30463;BME280;17256;43.618;25.336;2022-08-19T05:19:38;100335.41;;;28.30;100.00
30463;BME280;17256;43.618;25.336;2022-08-19T05:22:22;100245.75;;;28.13;96.59
30463;BME280;17256;43.618;25.336;2022-08-19T05:24:58;100270.28;;;28.84;90.72
30463;BME280;17256;43.618;25.336;2022-08-19T05:27:24;100339.25;;;29.48;89.58
30463;BME280;17256;43.618;25.336;2022-08-19T05:29:50;100278.16;;;29.21;89.33
30463;BME280;17256;43.618;25.336;2022-08-19T05:32:16;100313.94;;;29.43;86.80
30463;BME280;17256;43.618;25.336;2022-08-19T05:34:41;100283.97;;;29.16;86.97
30463;BME280;17256;43.618;25.336;2022-08-19T05:37:07;100349.06;;;30.02;85.17
30463;BME280;17256;43.618;25.336;2022-08-19T05:39:35;100304.63;;;29.68;85.49
30463;BME280;17256;43.618;25.336;2022-08-19T05:42:07;100334.75;;;29.38;90.69
30463;BME280;17256;43.618;25.336;2022-08-19T05:44:36;100312.06;;;28.95;92.83
30463;BME280;17256;43.618;25.336;2022-08-19T05:47:03;100339.91;;;29.28;92.98
30463;BME280;17256;43.618;25.336;2022-08-19T05:49:32;100265.63;;;28.79;92.92
30463;BME280;17256;43.618;25.336;2022-08-19T05:51:58;100336.94;;;29.59;91.57
30463;BME280;17256;43.618;25.336;2022-08-19T05:54:25;100224.78;;;29.02;88.22
30463;BME280;17256;43.618;25.336;2022-08-19T05:56:52;100270.84;;;29.20;88.87
30463;BME280;17256;43.618;25.336;2022-08-19T05:59:19;100339.59;;;29.73;89.82
30463;BME280;17256;43.618;25.336;2022-08-19T06:01:48;100224.09;;;28.97;86.68
30463;BME280;17256;43.618;25.336;2022-08-19T06:04:18;100285.97;;;29.07;86.81
30463;BME280;17256;43.618;25.336;2022-08-19T06:06:49;100349.41;;;30.01;85.72
30463;BME280;17256;43.618;25.336;2022-08-19T06:09:18;100283.13;;;29.93;78.52
30463;BME280;17256;43.618;25.336;2022-08-19T06:11:52;100340.13;;;30.56;76.55
30463;BME280;17256;43.618;25.336;2022-08-19T06:14:31;100337.97;;;30.91;75.56
30463;BME280;17256;43.618;25.336;2022-08-19T06:16:57;100242.75;;;30.60;73.04
30463;BME280;17256;43.618;25.336;2022-08-19T06:19:26;100125.50;;;30.15;69.87
30463;BME280;17256;43.618;25.336;2022-08-19T06:21:52;100292.94;;;31.40;70.31
30463;BME280;17256;43.618;25.336;2022-08-19T06:24:23;100306.16;;;31.77;69.63
30463;BME280;17256;43.618;25.336;2022-08-19T06:26:50;100282.19;;;31.66;67.05
30463;BME280;17256;43.618;25.336;2022-08-19T06:29:20;100313.59;;;32.03;66.27
30463;BME280;17256;43.618;25.336;2022-08-19T06:31:48;100339.75;;;32.41;62.74
30463;BME280;17256;43.618;25.336;2022-08-19T06:34:15;100294.75;;;32.43;61.63
30463;BME280;17256;43.618;25.336;2022-08-19T06:36:44;100339.09;;;32.93;61.80
30463;BME280;17256;43.618;25.336;2022-08-19T06:39:14;100339.09;;;33.06;58.90
30463;BME280;17256;43.618;25.336;2022-08-19T06:41:42;100340.75;;;32.94;57.99
30463;BME280;17256;43.618;25.336;2022-08-19T06:44:17;100302.94;;;32.69;58.05
30463;BME280;17256;43.618;25.336;2022-08-19T06:46:43;100340.16;;;32.77;57.52
30463;BME280;17256;43.618;25.336;2022-08-19T06:49:09;100249.69;;;32.21;58.16
30463;BME280;17256;43.618;25.336;2022-08-19T06:51:40;100309.81;;;32.56;57.74
30463;BME280;17256;43.618;25.336;2022-08-19T06:54:06;100342.50;;;32.62;56.92
30463;BME280;17256;43.618;25.336;2022-08-19T06:56:33;100347.59;;;32.57;56.20
30463;BME280;17256;43.618;25.336;2022-08-19T06:59:08;100325.31;;;32.59;57.07
30463;BME280;17256;43.618;25.336;2022-08-19T07:01:36;100338.59;;;32.55;56.73
30463;BME280;17256;43.618;25.336;2022-08-19T07:04:06;100276.44;;;32.08;57.62
30463;BME280;17256;43.618;25.336;2022-08-19T07:06:32;100313.94;;;32.59;56.41
30463;BME280;17256;43.618;25.336;2022-08-19T07:08:58;100281.50;;;32.48;57.36
30463;BME280;17256;43.618;25.336;2022-08-19T07:11:24;100308.97;;;32.68;55.95
30463;BME280;17256;43.618;25.336;2022-08-19T07:13:49;100333.19;;;32.98;54.73
30463;BME280;17256;43.618;25.336;2022-08-19T07:16:18;100325.09;;;32.76;55.95
30463;BME280;17256;43.618;25.336;2022-08-19T07:18:50;100358.53;;;33.16;55.00
30463;BME280;17256;43.618;25.336;2022-08-19T07:21:25;100323.22;;;33.04;55.43
30463;BME280;17256;43.618;25.336;2022-08-19T07:23:53;100352.00;;;33.27;54.35
30463;BME280;17256;43.618;25.336;2022-08-19T07:26:26;100349.66;;;33.05;55.28
30463;BME280;17256;43.618;25.336;2022-08-19T07:28:52;100291.09;;;33.04;53.88
30463;BME280;17256;43.618;25.336;2022-08-19T07:31:23;100336.31;;;33.46;53.00
30463;BME280;17256;43.618;25.336;2022-08-19T07:33:50;100357.25;;;33.65;53.42
30463;BME280;17256;43.618;25.336;2022-08-19T07:36:20;100290.22;;;33.28;53.50
30463;BME280;17256;43.618;25.336;2022-08-19T07:38:47;100349.63;;;33.82;53.94
30463;BME280;17256;43.618;25.336;2022-08-19T07:41:18;100347.72;;;33.86;53.47
30463;BME280;17256;43.618;25.336;2022-08-19T07:43:44;100340.41;;;33.73;52.64
30463;BME280;17256;43.618;25.336;2022-08-19T07:46:11;100253.03;;;33.09;51.74
30463;BME280;17256;43.618;25.336;2022-08-19T07:48:40;100312.13;;;33.52;52.15
30463;BME280;17256;43.618;25.336;2022-08-19T07:51:08;100352.47;;;33.82;52.37
30463;BME280;17256;43.618;25.336;2022-08-19T07:53:35;100289.44;;;33.55;52.00
30463;BME280;17256;43.618;25.336;2022-08-19T07:56:04;100352.78;;;33.92;52.42
30463;BME280;17256;43.618;25.336;2022-08-19T07:58:32;100329.13;;;34.04;51.38
30463;BME280;17256;43.618;25.336;2022-08-19T08:00:59;100285.09;;;34.02;50.55
30463;BME280;17256;43.618;25.336;2022-08-19T08:03:27;100302.03;;;34.10;50.67
30463;BME280;17256;43.618;25.336;2022-08-19T08:06:16;100333.00;;;34.12;50.57
30463;BME280;17256;43.618;25.336;2022-08-19T08:09:03;100319.25;;;34.30;49.43
30463;BME280;17256;43.618;25.336;2022-08-19T08:11:58;100350.38;;;34.66;49.19
30463;BME280;17256;43.618;25.336;2022-08-19T08:14:28;100352.41;;;34.66;47.92
30463;BME280;17256;43.618;25.336;2022-08-19T08:16:54;100287.88;;;34.14;48.74
30463;BME280;17256;43.618;25.336;2022-08-19T08:19:22;100316.81;;;34.60;47.73
30463;BME280;17256;43.618;25.336;2022-08-19T08:21:51;100349.75;;;34.89;47.35
30463;BME280;17256;43.618;25.336;2022-08-19T08:24:17;100350.59;;;34.89;47.13
30463;BME280;17256;43.618;25.336;2022-08-19T08:26:44;100340.69;;;35.18;44.66
30463;BME280;17256;43.618;25.336;2022-08-19T08:29:10;100303.25;;;35.04;45.17
30463;BME280;17256;43.618;25.336;2022-08-19T08:31:40;100351.53;;;35.28;44.25
30463;BME280;17256;43.618;25.336;2022-08-19T08:34:07;100283.13;;;34.97;44.65
30463;BME280;17256;43.618;25.336;2022-08-19T08:36:39;100252.31;;;34.71;43.86
30463;BME280;17256;43.618;25.336;2022-08-19T08:39:19;100344.69;;;35.33;44.78
30463;BME280;17256;43.618;25.336;2022-08-19T08:47:17;100337.22;;;35.09;44.95
30463;BME280;17256;43.618;25.336;2022-08-19T08:49:59;100191.28;;;34.24;43.67
30463;BME280;17256;43.618;25.336;2022-08-19T08:52:29;100327.94;;;35.31;44.40
30463;BME280;17256;43.618;25.336;2022-08-19T08:54:58;100332.22;;;35.57;44.09
30463;BME280;17256;43.618;25.336;2022-08-19T08:57:35;100296.78;;;35.23;44.75
30463;BME280;17256;43.618;25.336;2022-08-19T09:00:06;100328.75;;;35.48;44.54
30463;BME280;17256;43.618;25.336;2022-08-19T09:02:33;100254.75;;;35.04;45.08
30463;BME280;17256;43.618;25.336;2022-08-19T09:04:58;100331.94;;;35.27;45.38
30463;BME280;17256;43.618;25.336;2022-08-19T09:10:43;100335.94;;;35.06;46.81
30463;BME280;17256;43.618;25.336;2022-08-19T09:16:16;100307.47;;;35.64;45.01
30463;BME280;17256;43.618;25.336;2022-08-19T09:18:46;100282.16;;;35.43;45.05
30463;BME280;17256;43.618;25.336;2022-08-19T09:21:14;100298.16;;;35.67;44.54
30463;BME280;17256;43.618;25.336;2022-08-19T09:23:40;100335.03;;;35.92;45.82
30463;BME280;17256;43.618;25.336;2022-08-19T09:26:11;100336.47;;;36.01;45.00
30463;BME280;17256;43.618;25.336;2022-08-19T09:28:40;100319.78;;;35.84;45.25
30463;BME280;17256;43.618;25.336;2022-08-19T09:31:10;100308.31;;;36.03;45.67
30463;BME280;17256;43.618;25.336;2022-08-19T09:33:35;100288.38;;;36.07;44.43
30463;BME280;17256;43.618;25.336;2022-08-19T09:36:07;100328.31;;;36.23;44.26
30463;BME280;17256;43.618;25.336;2022-08-19T09:38:34;100314.47;;;36.05;44.13
30463;BME280;17256;43.618;25.336;2022-08-19T09:41:08;100245.31;;;35.77;44.64
30463;BME280;17256;43.618;25.336;2022-08-19T09:43:34;100280.50;;;36.00;44.63
30463;BME280;17256;43.618;25.336;2022-08-19T09:46:03;100298.44;;;36.20;43.61
30463;BME280;17256;43.618;25.336;2022-08-19T09:48:32;100210.16;;;35.73;44.27
30463;BME280;17256;43.618;25.336;2022-08-19T09:51:06;100293.16;;;35.99;44.11
30463;BME280;17256;43.618;25.336;2022-08-19T09:53:34;100274.31;;;35.21;46.33
30463;BME280;17256;43.618;25.336;2022-08-19T09:56:01;100235.81;;;35.15;45.90
30463;BME280;17256;43.618;25.336;2022-08-19T09:58:27;100286.94;;;35.20;45.35
30463;BME280;17256;43.618;25.336;2022-08-19T10:00:56;100230.88;;;35.12;45.75
30463;BME280;17256;43.618;25.336;2022-08-19T10:03:22;100230.44;;;35.29;45.99
30463;BME280;17256;43.618;25.336;2022-08-19T10:05:48;100254.19;;;35.72;44.63
30463;BME280;17256;43.618;25.336;2022-08-19T10:08:18;100273.81;;;36.16;43.83
30463;BME280;17256;43.618;25.336;2022-08-19T10:10:45;100300.63;;;36.50;44.47
30463;BME280;17256;43.618;25.336;2022-08-19T10:13:12;100261.16;;;36.36;43.52
30463;BME280;17256;43.618;25.336;2022-08-19T10:15:37;100292.16;;;36.57;43.61
30463;BME280;17256;43.618;25.336;2022-08-19T10:18:06;100250.94;;;36.35;43.31
30463;BME280;17256;43.618;25.336;2022-08-19T10:20:32;100282.84;;;35.95;44.30
30463;BME280;17256;43.618;25.336;2022-08-19T10:23:01;100274.50;;;35.86;44.32
30463;BME280;17256;43.618;25.336;2022-08-19T10:25:26;100271.94;;;36.00;44.44
30463;BME280;17256;43.618;25.336;2022-08-19T10:27:52;100275.41;;;36.13;44.89
30463;BME280;17256;43.618;25.336;2022-08-19T10:30:20;100288.25;;;36.00;44.64
30463;BME280;17256;43.618;25.336;2022-08-19T10:32:47;100233.91;;;35.77;44.29
30463;BME280;17256;43.618;25.336;2022-08-19T10:35:13;100251.06;;;36.19;44.86
30463;BME280;17256;43.618;25.336;2022-08-19T10:37:39;100259.28;;;36.01;43.93
30463;BME280;17256;43.618;25.336;2022-08-19T10:40:07;100277.72;;;36.27;45.80
30463;BME280;17256;43.618;25.336;2022-08-19T10:42:34;100214.00;;;36.03;44.27
30463;BME280;17256;43.618;25.336;2022-08-19T10:45:00;100233.63;;;36.28;43.71
30463;BME280;17256;43.618;25.336;2022-08-19T10:47:26;100254.00;;;36.46;43.81
30463;BME280;17256;43.618;25.336;2022-08-19T10:49:53;100228.06;;;36.35;44.69
30463;BME280;17256;43.618;25.336;2022-08-19T10:52:43;100276.06;;;36.03;44.78
30463;BME280;17256;43.618;25.336;2022-08-19T10:55:11;100236.91;;;35.65;45.25
30463;BME280;17256;43.618;25.336;2022-08-19T10:57:55;100225.09;;;35.28;45.31
30463;BME280;17256;43.618;25.336;2022-08-19T11:00:21;100244.50;;;35.76;44.63
30463;BME280;17256;43.618;25.336;2022-08-19T11:02:47;100227.03;;;36.01;44.28
30463;BME280;17256;43.618;25.336;2022-08-19T11:05:13;100251.13;;;36.46;43.74
30463;BME280;17256;43.618;25.336;2022-08-19T11:07:41;100259.94;;;36.60;43.71
30463;BME280;17256;43.618;25.336;2022-08-19T11:10:12;100257.03;;;36.33;44.25
30463;BME280;17256;43.618;25.336;2022-08-19T11:12:39;100261.59;;;36.38;43.69
30463;BME280;17256;43.618;25.336;2022-08-19T11:15:09;100232.56;;;36.36;43.22
30463;BME280;17256;43.618;25.336;2022-08-19T11:17:38;100248.53;;;36.63;43.37
30463;BME280;17256;43.618;25.336;2022-08-19T11:20:06;100214.56;;;36.13;42.81
30463;BME280;17256;43.618;25.336;2022-08-19T11:22:32;100220.81;;;35.76;42.97
30463;BME280;17256;43.618;25.336;2022-08-19T11:24:58;100222.53;;;35.81;42.92
30463;BME280;17256;43.618;25.336;2022-08-19T11:27:23;100170.09;;;35.11;44.55
30463;BME280;17256;43.618;25.336;2022-08-19T11:29:49;100202.47;;;35.77;44.67
30463;BME280;17256;43.618;25.336;2022-08-19T11:32:14;100231.22;;;36.30;43.25
30463;BME280;17256;43.618;25.336;2022-08-19T11:34:41;100206.59;;;36.22;43.06
30463;BME280;17256;43.618;25.336;2022-08-19T11:37:07;100165.75;;;35.98;44.35
30463;BME280;17256;43.618;25.336;2022-08-19T11:39:35;100209.44;;;36.22;43.75
30463;BME280;17256;43.618;25.336;2022-08-19T11:42:04;100216.44;;;36.47;42.72
30463;BME280;17256;43.618;25.336;2022-08-19T11:44:48;100150.97;;;36.42;42.27
30463;BME280;17256;43.618;25.336;2022-08-19T11:47:14;100181.53;;;36.64;42.56
30463;BME280;17256;43.618;25.336;2022-08-19T11:49:40;100166.75;;;36.59;42.64
30463;BME280;17256;43.618;25.336;2022-08-19T11:52:10;100207.47;;;37.02;41.95
30463;BME280;17256;43.618;25.336;2022-08-19T11:54:46;100181.63;;;36.94;40.80
30463;BME280;17256;43.618;25.336;2022-08-19T11:57:12;100155.75;;;36.87;42.73
30463;BME280;17256;43.618;25.336;2022-08-19T11:59:40;100171.94;;;37.06;42.01
30463;BME280;17256;43.618;25.336;2022-08-19T12:02:05;100185.88;;;37.08;41.48
30463;BME280;17256;43.618;25.336;2022-08-19T12:04:31;100148.09;;;36.95;41.28
30463;BME280;17256;43.618;25.336;2022-08-19T12:06:57;100203.53;;;37.43;41.87
30463;BME280;17256;43.618;25.336;2022-08-19T12:09:22;100165.81;;;37.38;41.78
30463;BME280;17256;43.618;25.336;2022-08-19T12:11:48;100177.84;;;37.50;40.54
30463;BME280;17256;43.618;25.336;2022-08-19T12:14:13;100188.53;;;37.57;40.95
30463;BME280;17256;43.618;25.336;2022-08-19T12:16:39;100198.00;;;37.61;40.91
30463;BME280;17256;43.618;25.336;2022-08-19T12:19:06;100195.16;;;37.65;40.35
30463;BME280;17256;43.618;25.336;2022-08-19T12:21:34;100186.44;;;37.87;40.19
30463;BME280;17256;43.618;25.336;2022-08-19T12:24:02;100194.34;;;37.98;39.19
30463;BME280;17256;43.618;25.336;2022-08-19T12:26:29;100153.66;;;37.48;39.02
30463;BME280;17256;43.618;25.336;2022-08-19T12:28:57;100192.38;;;37.68;38.89
30463;BME280;17256;43.618;25.336;2022-08-19T12:31:26;100190.97;;;37.55;39.47
30463;BME280;17256;43.618;25.336;2022-08-19T12:33:53;100187.50;;;37.39;39.54
30463;BME280;17256;43.618;25.336;2022-08-19T12:36:19;100188.53;;;37.57;40.66
30463;BME280;17256;43.618;25.336;2022-08-19T12:38:45;100188.53;;;37.23;39.88
30463;BME280;17256;43.618;25.336;2022-08-19T12:41:14;100176.06;;;36.79;40.48
30463;BME280;17256;43.618;25.336;2022-08-19T12:43:42;100116.19;;;36.66;41.04
30463;BME280;17256;43.618;25.336;2022-08-19T12:46:09;100170.28;;;37.05;40.51
30463;BME280;17256;43.618;25.336;2022-08-19T12:48:35;100161.75;;;36.52;40.73
30463;BME280;17256;43.618;25.336;2022-08-19T12:51:07;100187.59;;;36.33;41.44
30463;BME280;17256;43.618;25.336;2022-08-19T12:53:33;100183.75;;;36.25;42.48
30463;BME280;17256;43.618;25.336;2022-08-19T12:55:59;100141.22;;;36.20;42.24
30463;BME280;17256;43.618;25.336;2022-08-19T12:58:25;100084.72;;;36.14;41.52
30463;BME280;17256;43.618;25.336;2022-08-19T13:00:52;100155.09;;;36.71;40.80
30463;BME280;17256;43.618;25.336;2022-08-19T13:03:18;100151.44;;;36.44;40.72
30463;BME280;17256;43.618;25.336;2022-08-19T13:05:47;100113.84;;;36.19;40.90
30463;BME280;17256;43.618;25.336;2022-08-19T13:08:16;100149.28;;;36.67;40.55
30463;BME280;17256;43.618;25.336;2022-08-19T13:10:42;100140.91;;;36.78;41.50
30463;BME280;17256;43.618;25.336;2022-08-19T13:13:08;100158.88;;;37.09;40.37
30463;BME280;17256;43.618;25.336;2022-08-19T13:15:38;100164.81;;;37.23;39.76
30463;BME280;17256;43.618;25.336;2022-08-19T13:18:09;100160.09;;;37.38;40.68
30463;BME280;17256;43.618;25.336;2022-08-19T13:20:36;100164.34;;;37.51;39.46
30463;BME280;17256;43.618;25.336;2022-08-19T13:23:12;100113.38;;;37.30;39.18
30463;BME280;17256;43.618;25.336;2022-08-19T13:25:38;100128.09;;;37.29;39.35
30463;BME280;17256;43.618;25.336;2022-08-19T13:28:04;100115.31;;;37.22;40.07
30463;BME280;17256;43.618;25.336;2022-08-19T13:30:31;100120.94;;;37.15;39.88
30463;BME280;17256;43.618;25.336;2022-08-19T13:33:16;100143.94;;;36.92;40.63
30463;BME280;17256;43.618;25.336;2022-08-19T13:36:00;100106.47;;;36.71;40.33
30463;BME280;17256;43.618;25.336;2022-08-19T13:38:27;100056.75;;;36.53;39.94
30463;BME280;17256;43.618;25.336;2022-08-19T13:40:54;100095.09;;;36.48;40.25
30463;BME280;17256;43.618;25.336;2022-08-19T13:43:22;100123.34;;;36.80;40.70
30463;BME280;17256;43.618;25.336;2022-08-19T13:45:52;100111.41;;;36.74;41.17
30463;BME280;17256;43.618;25.336;2022-08-19T13:48:18;100142.03;;;37.00;40.17
30463;BME280;17256;43.618;25.336;2022-08-19T13:50:45;100124.84;;;37.00;39.86
30463;BME280;17256;43.618;25.336;2022-08-19T13:53:12;100135.09;;;37.01;40.64
30463;BME280;17256;43.618;25.336;2022-08-19T13:55:39;100102.34;;;36.99;39.48
30463;BME280;17256;43.618;25.336;2022-08-19T13:58:06;100138.06;;;37.12;39.28
30463;BME280;17256;43.618;25.336;2022-08-19T14:00:34;100142.78;;;37.27;38.89
30463;BME280;17256;43.618;25.336;2022-08-19T14:03:01;100107.41;;;37.12;38.90
30463;BME280;17256;43.618;25.336;2022-08-19T14:05:28;100136.06;;;37.46;39.03
30463;BME280;17256;43.618;25.336;2022-08-19T14:07:53;100110.88;;;37.25;39.05
30463;BME280;17256;43.618;25.336;2022-08-19T14:10:21;100050.72;;;36.91;39.04
30463;BME280;17256;43.618;25.336;2022-08-19T14:12:46;100072.28;;;36.82;38.44
30463;BME280;17256;43.618;25.336;2022-08-19T14:15:13;100133.13;;;37.09;38.78
30463;BME280;17256;43.618;25.336;2022-08-19T14:17:41;100115.72;;;36.91;39.23
30463;BME280;17256;43.618;25.336;2022-08-19T14:20:08;100130.28;;;36.79;39.58
30463;BME280;17256;43.618;25.336;2022-08-19T14:22:39;100074.91;;;36.67;38.11
30463;BME280;17256;43.618;25.336;2022-08-19T14:25:07;100127.44;;;37.12;38.92
30463;BME280;17256;43.618;25.336;2022-08-19T14:27:34;100056.72;;;36.79;38.86
30463;BME280;17256;43.618;25.336;2022-08-19T14:30:05;100109.44;;;37.12;38.69
30463;BME280;17256;43.618;25.336;2022-08-19T14:32:32;100130.72;;;37.14;38.51
30463;BME280;17256;43.618;25.336;2022-08-19T14:34:58;100116.41;;;37.14;39.18
30463;BME280;17256;43.618;25.336;2022-08-19T14:37:24;100106.91;;;37.03;39.12
30463;BME280;17256;43.618;25.336;2022-08-19T14:39:50;100099.88;;;36.97;39.54
30463;BME280;17256;43.618;25.336;2022-08-19T14:42:16;100084.44;;;37.05;40.08
30463;BME280;17256;43.618;25.336;2022-08-19T14:44:42;100126.91;;;37.33;38.92
30463;BME280;17256;43.618;25.336;2022-08-19T14:47:09;100066.63;;;36.89;39.02
30463;BME280;17256;43.618;25.336;2022-08-19T14:49:35;100124.28;;;37.21;39.45
30463;BME280;17256;43.618;25.336;2022-08-19T14:52:02;100081.66;;;36.79;38.85
30463;BME280;17256;43.618;25.336;2022-08-19T14:54:28;100083.63;;;36.75;39.75
30463;BME280;17256;43.618;25.336;2022-08-19T14:56:54;100063.81;;;36.62;39.15
30463;BME280;17256;43.618;25.336;2022-08-19T14:59:20;100096.84;;;36.56;39.82
30463;BME280;17256;43.618;25.336;2022-08-19T15:01:50;100095.97;;;36.52;40.34
30463;BME280;17256;43.618;25.336;2022-08-19T15:04:16;100080.41;;;36.23;40.75
30463;BME280;17256;43.618;25.336;2022-08-19T15:06:41;100104.88;;;36.21;40.08
30463;BME280;17256;43.618;25.336;2022-08-19T15:09:08;100076.81;;;36.03;39.91
30463;BME280;17256;43.618;25.336;2022-08-19T15:11:35;100064.53;;;35.99;39.85
30463;BME280;17256;43.618;25.336;2022-08-19T15:14:02;100064.47;;;35.96;40.56
30463;BME280;17256;43.618;25.336;2022-08-19T15:16:28;100087.56;;;35.87;40.17
30463;BME280;17256;43.618;25.336;2022-08-19T15:18:55;100068.78;;;35.86;39.96
30463;BME280;17256;43.618;25.336;2022-08-19T15:21:23;100065.78;;;35.79;40.25
30463;BME280;17256;43.618;25.336;2022-08-19T15:23:50;100095.63;;;35.82;40.56
30463;BME280;17256;43.618;25.336;2022-08-19T15:26:20;100062.63;;;35.61;40.31
30463;BME280;17256;43.618;25.336;2022-08-19T15:28:46;100107.75;;;35.75;41.03
30463;BME280;17256;43.618;25.336;2022-08-19T15:31:16;100090.66;;;35.79;41.09
30463;BME280;17256;43.618;25.336;2022-08-19T15:33:43;100080.34;;;35.70;40.62
30463;BME280;17256;43.618;25.336;2022-08-19T15:36:10;100083.56;;;35.69;40.67
30463;BME280;17256;43.618;25.336;2022-08-19T15:38:38;100096.78;;;35.77;40.38
30463;BME280;17256;43.618;25.336;2022-08-19T15:41:05;100090.03;;;35.66;41.29
30463;BME280;17256;43.618;25.336;2022-08-19T15:44:04;100088.13;;;35.51;41.27
30463;BME280;17256;43.618;25.336;2022-08-19T15:46:33;100078.91;;;35.38;41.41
30463;BME280;17256;43.618;25.336;2022-08-19T15:48:59;100067.22;;;35.24;41.69
30463;BME280;17256;43.618;25.336;2022-08-19T15:51:27;100074.41;;;35.17;41.35
30463;BME280;17256;43.618;25.336;2022-08-19T15:53:53;99987.75;;;34.64;41.90
30463;BME280;17256;43.618;25.336;2022-08-19T15:56:19;100075.63;;;35.16;41.55
30463;BME280;17256;43.618;25.336;2022-08-19T15:58:45;100008.69;;;34.72;41.97
30463;BME280;17256;43.618;25.336;2022-08-19T16:01:29;100070.34;;;34.96;42.14
30463;BME280;17256;43.618;25.336;2022-08-19T16:04:13;100062.22;;;34.98;42.18
30463;BME280;17256;43.618;25.336;2022-08-19T16:06:59;100083.16;;;35.05;41.87
30463;BME280;17256;43.618;25.336;2022-08-19T16:09:28;100038.88;;;34.73;42.06
30463;BME280;17256;43.618;25.336;2022-08-19T16:11:56;100046.50;;;34.69;42.46
30463;BME280;17256;43.618;25.336;2022-08-19T16:14:22;100036.81;;;34.54;42.80
30463;BME280;17256;43.618;25.336;2022-08-19T16:16:48;100033.56;;;34.36;43.03
30463;BME280;17256;43.618;25.336;2022-08-19T16:19:15;100045.53;;;34.26;43.47
30463;BME280;17256;43.618;25.336;2022-08-19T16:21:43;100039.84;;;34.26;43.90
30463;BME280;17256;43.618;25.336;2022-08-19T16:28:17;100013.66;;;33.85;43.92
30463;BME280;17256;43.618;25.336;2022-08-19T16:30:43;100044.97;;;34.01;44.42
30463;BME280;17256;43.618;25.336;2022-08-19T16:33:10;100059.81;;;34.10;43.75
30463;BME280;17256;43.618;25.336;2022-08-19T16:35:36;100063.13;;;34.12;44.15
30463;BME280;17256;43.618;25.336;2022-08-19T16:38:02;100078.31;;;34.01;44.05
30463;BME280;17256;43.618;25.336;2022-08-19T16:40:28;100081.91;;;33.98;44.22
30463;BME280;17256;43.618;25.336;2022-08-19T16:42:54;100001.81;;;33.36;44.64
30463;BME280;17256;43.618;25.336;2022-08-19T16:45:20;99958.81;;;33.10;44.82
30463;BME280;17256;43.618;25.336;2022-08-19T16:47:46;100057.38;;;33.61;44.50
30463;BME280;17256;43.618;25.336;2022-08-19T16:50:12;100071.69;;;33.65;44.75
30463;BME280;17256;43.618;25.336;2022-08-19T16:52:38;100013.16;;;33.20;45.22
30463;BME280;17256;43.618;25.336;2022-08-19T16:55:04;100072.78;;;33.60;44.96
30463;BME280;17256;43.618;25.336;2022-08-19T16:57:30;100025.72;;;33.19;45.23
30463;BME280;17256;43.618;25.336;2022-08-19T16:59:57;100021.03;;;33.11;45.87
30463;BME280;17256;43.618;25.336;2022-08-19T17:02:23;100009.25;;;32.81;45.79
30463;BME280;17256;43.618;25.336;2022-08-19T17:04:50;100069.50;;;33.15;46.17
30463;BME280;17256;43.618;25.336;2022-08-19T17:07:16;100060.13;;;32.98;45.45
30463;BME280;17256;43.618;25.336;2022-08-19T17:09:42;100060.81;;;32.95;45.77
30463;BME280;17256;43.618;25.336;2022-08-19T17:12:07;100067.50;;;32.87;45.91
30463;BME280;17256;43.618;25.336;2022-08-19T17:14:33;100054.28;;;32.67;45.69
30463;BME280;17256;43.618;25.336;2022-08-19T17:16:59;100063.88;;;32.62;45.89
30463;BME280;17256;43.618;25.336;2022-08-19T17:19:24;100046.09;;;32.37;46.04
30463;BME280;17256;43.618;25.336;2022-08-19T17:21:50;100073.06;;;32.43;45.88